createdAt,value
2023-05-02T00:02:45.030Z,5.67
2023-05-02T00:05:12.690Z,4.63
2023-05-02T00:11:21.695Z,5.53
2023-05-02T00:14:14.079Z,5.00
2023-05-02T00:16:44.318Z,5.10
2023-05-02T00:19:12.366Z,6.47
2023-05-02T00:21:40.238Z,5.63
2023-05-02T00:24:07.796Z,5.50
2023-05-02T00:26:37.007Z,5.07
2023-05-02T00:32:07.976Z,5.43
2023-05-02T00:34:35.903Z,5.53
2023-05-02T00:37:03.376Z,5.57
2023-05-02T00:39:31.116Z,5.50
2023-05-02T00:41:59.392Z,5.20
2023-05-02T00:44:26.907Z,5.43
2023-05-02T00:49:59.154Z,6.93
2023-05-02T00:52:54.086Z,6.50
2023-05-02T00:55:21.884Z,6.37
2023-05-02T00:57:50.239Z,5.97
2023-05-02T01:00:47.039Z,5.80
2023-05-02T01:07:26.050Z,6.70
2023-05-02T01:10:09.237Z,7.23
2023-05-02T01:12:43.379Z,7.90
2023-05-02T01:15:16.363Z,7.57
2023-05-02T01:17:45.660Z,7.30
2023-05-02T01:20:17.342Z,8.10
2023-05-02T01:29:09.859Z,8.10
2023-05-02T01:31:41.952Z,7.90
2023-05-02T01:34:11.164Z,9.00
2023-05-02T01:36:47.200Z,8.57
2023-05-02T01:39:37.206Z,8.40
2023-05-02T01:42:05.605Z,8.73
2023-05-02T01:44:35.915Z,9.97
2023-05-02T01:47:05.884Z,9.93
2023-05-02T01:49:35.330Z,9.70
2023-05-02T01:55:17.008Z,8.87
2023-05-02T01:57:47.032Z,9.47
2023-05-02T02:03:19.006Z,9.30
2023-05-02T02:08:56.256Z,11.07
2023-05-02T02:12:33.455Z,9.63
2023-05-02T02:15:13.147Z,11.20
2023-05-02T02:17:46.090Z,11.97
2023-05-02T02:20:15.782Z,12.07
2023-05-02T02:22:44.818Z,11.77
2023-05-02T02:25:15.826Z,12.17
2023-05-02T02:27:43.557Z,10.93
2023-05-02T02:30:11.783Z,11.37
2023-05-02T02:35:48.277Z,11.37
2023-05-02T02:38:30.252Z,12.07
2023-05-02T02:41:12.900Z,11.77
2023-05-02T02:43:53.616Z,12.13
2023-05-02T02:46:29.885Z,12.07
2023-05-02T02:49:27.853Z,13.17
2023-05-02T02:52:15.088Z,14.00
2023-05-02T03:04:21.709Z,17.23
2023-05-02T03:06:49.610Z,15.70
2023-05-02T03:09:18.712Z,17.23
2023-05-02T03:21:18.891Z,15.30
2023-05-02T03:23:47.322Z,16.50
2023-05-02T03:26:15.251Z,18.27
2023-05-02T03:28:42.778Z,18.73
2023-05-02T03:31:39.183Z,19.17
2023-05-02T03:34:06.742Z,20.53
2023-05-02T03:36:35.218Z,18.43
2023-05-02T03:39:49.292Z,20.20
2023-05-02T03:49:13.654Z,23.37
2023-05-02T03:51:44.351Z,23.23
2023-05-02T03:54:13.099Z,24.77
2023-05-02T04:02:48.162Z,26.17
2023-05-02T04:05:20.203Z,26.47
2023-05-02T04:08:01.466Z,26.80
2023-05-02T04:16:52.030Z,29.23
2023-05-02T04:22:30.009Z,28.70
2023-05-02T04:25:02.147Z,26.77
2023-05-02T04:38:04.968Z,26.83
2023-05-02T04:47:18.570Z,28.90
2023-05-02T04:49:46.704Z,28.10
2023-05-02T04:52:16.424Z,29.77
2023-05-02T04:59:18.080Z,26.63
2023-05-02T05:02:25.373Z,28.37
2023-05-02T05:04:53.336Z,29.53
2023-05-02T07:26:59.346Z,20.60
2023-05-02T07:29:26.972Z,19.57
2023-05-02T07:31:54.382Z,19.67
2023-05-02T07:34:22.246Z,21.03
2023-05-02T07:36:50.378Z,20.20
2023-05-02T07:39:17.803Z,18.83
2023-05-02T07:41:45.733Z,19.57
2023-05-02T07:44:13.490Z,16.03
2023-05-02T07:46:41.162Z,17.40
2023-05-02T07:49:08.587Z,16.67
2023-05-02T07:51:36.075Z,17.87
2023-05-02T07:54:03.420Z,18.07
2023-05-02T07:56:30.847Z,17.53
2023-05-02T07:58:58.811Z,16.97
2023-05-02T08:01:26.313Z,16.00
2023-05-02T08:03:53.738Z,15.33
2023-05-02T08:06:22.479Z,14.43
2023-05-02T08:08:49.957Z,14.97
2023-05-02T08:11:17.804Z,16.70
2023-05-02T08:13:45.158Z,16.43
2023-05-02T08:16:12.953Z,19.23
2023-05-02T08:18:41.225Z,17.73
2023-05-02T08:21:08.761Z,18.03
2023-05-02T08:23:37.502Z,16.87
2023-05-02T08:26:05.009Z,16.00
2023-05-02T08:28:33.816Z,17.87
2023-05-02T08:31:01.666Z,16.67
2023-05-02T08:33:29.044Z,16.23
2023-05-02T08:35:56.456Z,19.57
2023-05-02T08:38:23.775Z,21.73
2023-05-02T08:40:51.561Z,19.27
2023-05-02T08:43:19.422Z,19.17
2023-05-02T08:45:46.838Z,18.43
2023-05-02T08:48:17.039Z,21.77
2023-05-02T08:50:48.035Z,21.40
2023-05-02T08:53:18.074Z,22.97
2023-05-02T08:55:46.638Z,22.37
2023-05-02T08:58:15.372Z,18.70
2023-05-02T09:00:48.276Z,18.93
2023-05-02T09:03:33.677Z,20.13
2023-05-02T09:06:05.199Z,18.30
2023-05-02T09:08:37.705Z,21.07
2023-05-02T09:11:06.926Z,18.17
2023-05-02T09:20:00.212Z,19.23
2023-05-02T09:22:32.026Z,20.40
2023-05-02T09:25:02.225Z,20.27
2023-05-02T09:27:48.787Z,18.60
2023-05-02T09:30:26.863Z,20.70
2023-05-02T09:33:02.565Z,15.57
2023-05-02T09:39:18.270Z,17.90
2023-05-02T09:41:49.662Z,15.67
2023-05-02T09:44:19.373Z,14.77
2023-05-02T09:46:49.839Z,16.23
2023-05-02T09:49:20.856Z,14.57
2023-05-02T09:51:49.435Z,14.60
2023-05-02T09:54:37.010Z,14.43
2023-05-02T09:57:07.067Z,15.40
2023-05-02T09:59:34.496Z,12.97
2023-05-02T10:02:04.341Z,10.63
2023-05-02T10:04:33.645Z,10.83
2023-05-02T10:07:02.523Z,7.70
2023-05-02T10:09:34.600Z,8.27
2023-05-02T10:12:08.142Z,8.73
2023-05-02T10:21:03.440Z,10.27
2023-05-02T10:23:30.907Z,10.77
2023-05-02T10:26:00.329Z,9.30
2023-05-02T10:28:30.020Z,8.83
2023-05-02T10:31:00.462Z,9.67
2023-05-02T10:33:29.061Z,9.00
2023-05-02T10:35:56.453Z,8.40
2023-05-02T10:38:24.947Z,9.27
2023-05-02T10:41:01.931Z,8.23
2023-05-02T10:43:33.875Z,8.57
2023-05-02T10:46:03.505Z,8.30
2023-05-02T10:48:31.068Z,8.43
2023-05-02T10:51:01.666Z,8.30
2023-05-02T10:53:37.221Z,7.90
2023-05-02T10:56:12.229Z,7.50
2023-05-02T10:58:40.546Z,7.43
2023-05-02T11:01:27.225Z,7.20
2023-05-02T11:03:59.330Z,7.23
2023-05-02T11:06:33.354Z,7.23
2023-05-02T11:09:16.102Z,8.00
2023-05-02T11:11:46.465Z,6.93
2023-05-02T11:14:26.093Z,6.73
2023-05-02T11:17:05.501Z,6.37
2023-05-02T11:19:39.066Z,6.47
2023-05-02T11:22:33.119Z,5.93
2023-05-02T11:25:00.735Z,6.00
2023-05-02T11:27:31.885Z,6.00
2023-05-02T11:30:10.215Z,5.77
2023-05-02T11:32:47.559Z,5.53
2023-05-02T11:35:19.221Z,5.80
2023-05-02T11:37:56.674Z,7.63
2023-05-02T11:40:26.541Z,5.13
2023-05-02T11:42:54.422Z,5.33
2023-05-02T11:45:22.471Z,5.37
2023-05-02T11:47:51.465Z,5.37
2023-05-02T11:50:18.976Z,5.17
2023-05-02T11:52:47.448Z,4.53
2023-05-02T11:55:15.820Z,5.70
2023-05-02T11:57:43.085Z,5.37
2023-05-02T12:00:11.814Z,5.23
2023-05-02T12:02:41.172Z,5.40
2023-05-02T12:05:10.733Z,5.43
2023-05-02T12:07:42.965Z,5.07
2023-05-02T12:10:11.343Z,5.50
2023-05-02T12:12:40.801Z,5.73
2023-05-02T12:15:11.020Z,6.00
2023-05-02T12:17:44.549Z,6.13
2023-05-02T12:20:12.628Z,5.27
2023-05-02T12:22:40.137Z,4.97
2023-05-02T12:25:08.929Z,5.30
2023-05-02T12:27:37.843Z,5.50
2023-05-02T12:30:05.970Z,5.23
2023-05-02T12:32:35.793Z,4.57
2023-05-02T12:35:04.624Z,5.40
2023-05-02T12:37:33.391Z,5.50
2023-05-02T12:40:01.090Z,5.80
2023-05-02T12:42:28.831Z,5.40
2023-05-02T12:44:56.966Z,5.50
2023-05-02T12:47:24.892Z,5.43
2023-05-02T12:49:57.746Z,4.87
2023-05-02T12:52:51.368Z,4.60
2023-05-02T12:55:24.384Z,4.60
2023-05-02T12:58:04.138Z,4.13
2023-05-02T13:00:33.120Z,3.97
2023-05-02T13:03:00.904Z,4.07
2023-05-02T13:05:28.341Z,3.43
2023-05-02T13:07:59.201Z,5.40
2023-05-02T13:10:27.763Z,4.57
2023-05-02T13:12:55.525Z,4.67
2023-05-02T13:15:23.249Z,5.20
2023-05-02T13:17:52.393Z,5.20
2023-05-02T13:20:20.043Z,4.97
2023-05-02T13:22:47.436Z,5.30
2023-05-02T13:25:14.795Z,5.20
2023-05-02T13:27:42.616Z,5.00
2023-05-02T13:30:11.365Z,5.33
2023-05-02T13:32:39.447Z,4.33
2023-05-02T13:35:07.813Z,4.80
2023-05-02T13:37:35.222Z,5.13
2023-05-02T13:40:02.894Z,5.40
2023-05-02T13:42:31.069Z,4.63
2023-05-02T13:44:58.664Z,6.37
2023-05-02T13:47:26.568Z,5.40
2023-05-02T13:49:53.901Z,5.73
2023-05-02T13:52:21.226Z,5.93
2023-05-02T13:54:49.301Z,6.20
2023-05-02T13:57:16.578Z,6.30
2023-05-02T13:59:44.010Z,6.07
2023-05-02T14:02:12.366Z,5.97
2023-05-02T14:04:39.611Z,7.33
2023-05-02T14:07:07.411Z,7.90
2023-05-02T14:09:35.055Z,7.13
2023-05-02T14:12:02.835Z,7.10
2023-05-02T14:14:30.637Z,6.67
2023-05-02T14:16:58.025Z,6.50
2023-05-02T14:19:25.847Z,10.00
2023-05-02T14:21:53.443Z,6.30
2023-05-02T14:24:20.937Z,6.50
2023-05-02T14:26:48.401Z,6.50
2023-05-02T14:29:15.826Z,6.20
2023-05-02T14:31:43.174Z,6.20
2023-05-02T14:34:10.642Z,6.10
2023-05-02T14:36:38.195Z,6.17
2023-05-02T14:39:05.671Z,5.20
2023-05-02T14:41:32.996Z,5.37
2023-05-02T14:44:00.705Z,5.23
2023-05-02T14:46:28.101Z,5.23
2023-05-02T14:48:55.558Z,5.27
2023-05-02T14:51:23.094Z,5.37
2023-05-02T14:53:50.677Z,5.63
2023-05-02T14:56:18.720Z,5.70
2023-05-02T14:58:46.563Z,4.93
2023-05-02T15:01:21.754Z,5.30
2023-05-02T15:04:05.054Z,5.27
2023-05-02T15:06:34.925Z,5.77
2023-05-02T15:09:02.932Z,4.73
2023-05-02T15:11:30.710Z,5.70
2023-05-02T15:13:59.386Z,5.30
2023-05-02T15:16:27.637Z,5.43
2023-05-02T15:18:55.775Z,5.67
2023-05-02T15:21:23.693Z,5.20
2023-05-02T15:23:51.342Z,5.10
2023-05-02T15:26:18.910Z,5.93
2023-05-02T15:28:46.423Z,4.03
2023-05-02T15:31:14.073Z,4.23
2023-05-02T15:33:41.384Z,4.13
2023-05-02T15:36:09.693Z,3.87
2023-05-02T15:38:39.516Z,4.53
2023-05-02T15:41:09.603Z,4.63
2023-05-02T15:43:37.848Z,5.93
2023-05-02T15:46:05.323Z,4.20
2023-05-02T15:48:33.548Z,24.10
2023-05-02T15:51:02.245Z,4.63
2023-05-02T15:53:29.925Z,4.50
2023-05-02T15:55:57.601Z,4.93
2023-05-02T15:58:25.139Z,5.60
2023-05-02T16:00:52.919Z,4.90
2023-05-02T16:03:20.414Z,4.60
2023-05-02T16:05:47.985Z,4.50
2023-05-02T16:08:15.570Z,5.00
2023-05-02T16:10:43.410Z,5.07
2023-05-02T16:13:10.888Z,4.97
2023-05-02T16:15:39.487Z,4.53
2023-05-02T16:18:10.297Z,4.80
2023-05-02T16:55:31.299Z,6.53
2023-05-02T16:57:58.846Z,7.27
2023-05-02T17:00:30.404Z,5.67
2023-05-02T17:02:58.769Z,6.40
